Time;durP1;ratioP1;P1;durP2;ratioP2;P2;SDS_P1;SDS_P2;PMS_P1;PMS_P2;Temp;Humidity;BMP_temperature;BMP_pressure;BME280_temperature;BME280_humidity;BME280_pressure;Samples;Min_cycle;Max_cycle;Signal;HPM_P1;HPM_P2
2022/11/01 00:01:06;;;;;;;24.00;13.32;;;13.60;99.90;;;;;;5037233;28;20045;-89
2022/11/01 00:03:33;;;;;;;21.65;13.50;;;13.60;99.90;;;;;;5053190;28;20047;-89
2022/11/01 00:05:59;;;;;;;25.67;13.80;;;13.60;99.90;;;;;;5036485;28;20055;-89
2022/11/01 00:08:25;;;;;;;21.33;13.52;;;13.60;99.90;;;;;;5033343;28;20041;-88
2022/11/01 00:10:51;;;;;;;21.58;13.38;;;13.70;99.90;;;;;;5017326;28;20048;-89
2022/11/01 00:13:17;;;;;;;23.45;13.48;;;13.70;99.90;;;;;;5017171;28;20475;-89
2022/11/01 00:15:42;;;;;;;19.73;12.57;;;13.60;99.90;;;;;;5017669;28;20122;-89
2022/11/01 00:18:08;;;;;;;24.98;13.13;;;13.60;99.90;;;;;;5034348;28;20052;-89
2022/11/01 00:20:34;;;;;;;27.15;12.98;;;13.70;99.90;;;;;;5033362;28;20045;-89
2022/11/01 00:23:00;;;;;;;25.02;13.30;;;13.70;99.90;;;;;;5033129;28;20080;-89
2022/11/01 00:25:25;;;;;;;23.50;12.90;;;13.70;99.90;;;;;;5017172;28;20465;-89
2022/11/01 00:27:51;;;;;;;27.00;12.93;;;13.70;99.90;;;;;;5018864;28;20109;-89
2022/11/01 00:30:17;;;;;;;24.08;12.73;;;13.70;99.90;;;;;;5034585;28;20052;-89
2022/11/01 00:32:43;;;;;;;17.95;12.65;;;13.70;99.90;;;;;;5034804;28;20124;-89
2022/11/01 00:35:08;;;;;;;21.00;12.68;;;13.70;99.90;;;;;;5035061;28;20493;-89
2022/11/01 00:37:34;;;;;;;19.92;12.30;;;13.70;99.90;;;;;;5035907;28;20440;-89
2022/11/01 00:40:00;;;;;;;21.33;12.23;;;13.60;99.90;;;;;;5033587;28;20049;-89
2022/11/01 00:42:26;;;;;;;23.20;11.88;;;13.60;99.90;;;;;;5031509;28;20040;-89
2022/11/01 00:44:52;;;;;;;20.30;11.43;;;13.60;99.90;;;;;;5043575;28;20077;-89
2022/11/01 00:47:18;;;;;;;20.52;12.60;;;13.70;99.90;;;;;;5034083;28;20041;-89
2022/11/01 00:49:44;;;;;;;23.75;12.00;;;13.70;99.90;;;;;;5030147;28;20049;-89
2022/11/01 00:52:10;;;;;;;25.00;11.98;;;13.70;99.90;;;;;;5032931;28;20045;-89
2022/11/01 00:54:35;;;;;;;22.42;11.30;;;13.70;99.90;;;;;;5024358;28;20052;-89
2022/11/01 00:57:01;;;;;;;25.38;11.63;;;13.70;99.90;;;;;;5014733;28;20041;-89
2022/11/01 00:59:27;;;;;;;20.13;12.13;;;13.70;99.90;;;;;;5019929;28;20056;-89
2022/11/01 01:01:52;;;;;;;20.70;11.82;;;13.70;99.90;;;;;;5051147;28;20044;-89
2022/11/01 01:04:18;;;;;;;21.02;11.63;;;13.80;99.90;;;;;;5031552;28;20041;-89
2022/11/01 01:06:44;;;;;;;18.52;10.60;;;13.70;99.90;;;;;;5032877;28;20061;-89
2022/11/01 01:09:10;;;;;;;19.10;10.52;;;13.70;99.90;;;;;;5030170;28;20081;-89
2022/11/01 01:11:36;;;;;;;21.77;10.60;;;13.80;99.90;;;;;;5032700;28;20042;-89
2022/11/01 01:14:02;;;;;;;17.38;9.85;;;13.70;99.90;;;;;;5033067;28;20459;-89
2022/11/01 01:16:27;;;;;;;20.90;11.20;;;13.80;99.90;;;;;;5020661;28;20045;-89
2022/11/01 01:18:54;;;;;;;20.48;10.50;;;13.80;99.90;;;;;;5020458;28;20084;-89
2022/11/01 01:21:20;;;;;;;17.98;10.77;;;13.80;99.90;;;;;;5020175;28;20045;-89
2022/11/01 01:23:47;;;;;;;21.52;11.10;;;13.80;99.90;;;;;;5019925;28;20052;-89
2022/11/01 01:26:13;;;;;;;20.20;11.40;;;13.80;99.90;;;;;;5019725;28;20056;-89
2022/11/01 01:28:39;;;;;;;18.20;10.65;;;13.80;99.90;;;;;;5019694;28;20347;-89
2022/11/01 01:31:06;;;;;;;18.42;10.45;;;13.80;99.90;;;;;;5037616;28;20049;-89
2022/11/01 01:33:32;;;;;;;17.73;10.30;;;13.90;99.90;;;;;;5026766;28;20124;-89
2022/11/01 01:36:03;;;;;;;17.83;10.60;;;13.90;99.90;;;;;;5031242;28;20072;-89
2022/11/01 01:38:28;;;;;;;18.52;10.38;;;13.90;99.90;;;;;;5037531;28;20496;-89
2022/11/01 01:41:54;;;;;;;18.17;9.80;;;13.90;99.90;;;;;;5037168;28;20127;-89
2022/11/01 01:43:42;;;;;;;17.40;9.48;;;13.90;99.90;;;;;;5038091;28;20132;-89
2022/11/01 01:46:09;;;;;;;21.30;10.10;;;14.00;99.90;;;;;;5019756;28;20049;-88
2022/11/01 01:48:36;;;;;;;21.35;10.32;;;14.00;99.90;;;;;;5024062;28;20134;-89
2022/11/01 01:51:06;;;;;;;16.70;10.00;;;13.90;99.90;;;;;;5034662;28;20048;-89
2022/11/01 01:53:36;;;;;;;19.77;9.90;;;13.90;99.90;;;;;;5031496;28;20134;-89
2022/11/01 01:56:05;;;;;;;18.30;10.15;;;13.90;99.90;;;;;;5055873;28;20064;-89
2022/11/01 01:58:51;;;;;;;17.65;9.98;;;13.90;99.90;;;;;;5035987;28;20054;-88
2022/11/01 02:01:16;;;;;;;17.90;8.93;;;13.20;99.90;;;;;;5039390;28;20116;-89
2022/11/01 02:03:43;;;;;;;21.42;8.98;;;14.00;99.90;;;;;;5020098;28;20096;-89
2022/11/01 02:06:17;;;;;;;15.50;9.05;;;14.00;99.90;;;;;;5019683;28;20052;-89
2022/11/01 02:08:48;;;;;;;14.43;9.02;;;14.00;99.90;;;;;;5021148;28;20103;-89
2022/11/01 02:11:16;;;;;;;17.15;8.80;;;14.10;99.90;;;;;;5019292;28;20057;-89
2022/11/01 02:13:42;;;;;;;19.10;9.73;;;14.10;99.90;;;;;;5019214;28;20049;-89
2022/11/01 02:16:49;;;;;;;18.35;9.75;;;14.00;99.90;;;;;;5021045;28;20051;-89
2022/11/01 02:19:23;;;;;;;21.77;9.05;;;14.10;99.90;;;;;;5020161;28;20414;-89
2022/11/01 02:22:12;;;;;;;16.45;9.05;;;14.10;99.90;;;;;;5040730;28;20045;-89
2022/11/01 02:24:59;;;;;;;20.13;9.10;;;14.10;99.90;;;;;;5055355;28;20045;-88
2022/11/01 02:27:32;;;;;;;17.45;8.80;;;14.10;99.90;;;;;;5038768;28;20045;-89
2022/11/01 02:30:17;;;;;;;17.42;8.98;;;14.10;99.90;;;;;;5046369;28;20045;-89
2022/11/01 02:33:01;;;;;;;17.88;8.80;;;14.10;99.90;;;;;;5041221;28;20048;-89
2022/11/01 02:35:39;;;;;;;19.17;9.02;;;14.10;99.90;;;;;;5039438;28;20084;-89
2022/11/01 02:38:04;;;;;;;15.38;8.27;;;14.10;99.90;;;;;;5038673;28;20079;-89
2022/11/01 02:41:20;;;;;;;14.50;8.40;;;14.10;99.90;;;;;;5041479;28;20049;-89
2022/11/01 02:44:04;;;;;;;15.43;8.82;;;14.10;99.90;;;;;;4994162;28;20057;-89
2022/11/01 02:49:20;;;;;;;14.73;8.15;;;14.10;99.90;;;;;;5036629;28;20445;-89
2022/11/01 02:51:47;;;;;;;16.60;7.72;;;14.10;99.90;;;;;;5034934;28;20129;-88
2022/11/01 02:54:21;;;;;;;18.20;7.90;;;14.20;99.90;;;;;;5035925;28;20045;-88
2022/11/01 02:56:48;;;;;;;15.02;7.80;;;14.30;99.90;;;;;;5035720;28;20050;-88
2022/11/01 02:59:22;;;;;;;16.38;8.10;;;14.40;99.90;;;;;;5019131;28;20057;-88
2022/11/01 03:01:58;;;;;;;16.33;7.50;;;14.40;99.90;;;;;;5018965;28;20060;-88
2022/11/01 03:04:24;;;;;;;14.93;7.63;;;14.50;99.90;;;;;;5035132;28;20037;-89
2022/11/01 03:06:56;;;;;;;15.10;7.70;;;14.50;99.90;;;;;;5018157;28;20051;-89
2022/11/01 03:09:22;;;;;;;13.23;8.02;;;14.50;99.90;;;;;;5036231;28;20390;-89
2022/11/01 03:11:58;;;;;;;19.10;7.63;;;14.60;99.90;;;;;;5017955;28;20041;-89
2022/11/01 03:14:39;;;;;;;12.70;7.15;;;14.60;99.90;;;;;;5020192;28;20041;-89
2022/11/01 03:17:08;;;;;;;13.88;7.53;;;14.60;99.90;;;;;;5016475;28;20046;-89
2022/11/01 03:19:48;;;;;;;11.63;7.15;;;14.70;99.90;;;;;;5018871;28;20053;-89
2022/11/01 03:22:51;;;;;;;19.60;7.90;;;14.70;99.90;;;;;;5034207;28;20045;-89
2022/11/01 03:25:38;;;;;;;16.25;7.30;;;14.70;99.90;;;;;;5008192;28;20049;-89
2022/11/01 03:28:22;;;;;;;16.42;6.97;;;14.80;99.90;;;;;;5052368;28;20052;-89
2022/11/01 03:31:14;;;;;;;14.23;7.13;;;14.80;99.90;;;;;;5035951;28;20049;-89
2022/11/01 03:33:46;;;;;;;17.85;7.82;;;14.80;99.90;;;;;;5023142;28;20055;-89
2022/11/01 03:36:18;;;;;;;14.88;7.70;;;14.90;99.90;;;;;;5032742;28;20049;-88
2022/11/01 03:38:55;;;;;;;19.52;6.95;;;14.90;99.90;;;;;;5024545;28;20549;-88
2022/11/01 03:41:24;;;;;;;15.85;7.50;;;14.90;99.90;;;;;;5045944;28;20029;-89
2022/11/01 03:43:50;;;;;;;16.55;7.20;;;14.90;99.90;;;;;;5026197;28;20052;-88
2022/11/01 03:46:16;;;;;;;13.70;6.78;;;15.00;99.90;;;;;;5053713;28;20041;-89
2022/11/01 03:48:42;;;;;;;17.13;7.20;;;15.00;99.90;;;;;;5051811;28;20104;-88
2022/11/01 03:51:08;;;;;;;14.73;6.85;;;15.10;99.90;;;;;;5035577;28;20041;-88
2022/11/01 03:53:34;;;;;;;14.48;7.43;;;15.00;99.90;;;;;;5042490;28;20099;-88
2022/11/01 03:56:00;;;;;;;13.63;6.90;;;15.10;99.90;;;;;;5037519;28;20143;-89
2022/11/01 03:58:40;;;;;;;13.18;6.78;;;15.10;99.90;;;;;;5024598;28;20088;-89
2022/11/01 04:01:07;;;;;;;11.65;6.40;;;15.10;99.90;;;;;;5018722;28;20088;-88
2022/11/01 04:03:33;;;;;;;14.27;6.95;;;15.10;99.90;;;;;;5038412;28;20124;-88
2022/11/01 04:05:59;;;;;;;13.55;6.28;;;15.10;99.90;;;;;;5027664;28;20045;-89
2022/11/01 04:08:25;;;;;;;14.88;6.75;;;15.20;99.90;;;;;;5023915;28;20099;-89
2022/11/01 04:10:50;;;;;;;11.32;6.15;;;15.20;99.90;;;;;;5028375;28;20461;-88
2022/11/01 04:13:16;;;;;;;13.02;5.82;;;15.20;99.90;;;;;;5023532;28;20045;-89
2022/11/01 04:21:20;;;;;;;12.80;6.50;;;15.20;99.90;;;;;;5034546;28;20045;-89
2022/11/01 04:23:46;;;;;;;13.95;5.88;;;15.30;99.90;;;;;;5018856;28;20045;-89
2022/11/01 04:26:14;;;;;;;12.80;6.57;;;15.00;99.90;;;;;;5017726;28;20080;-89
2022/11/01 04:28:41;;;;;;;13.52;6.15;;;15.30;99.90;;;;;;5023526;28;20116;-89
2022/11/01 04:31:07;;;;;;;12.35;6.47;;;15.30;99.90;;;;;;5037740;28;20458;-88
2022/11/01 04:33:34;;;;;;;12.13;6.15;;;14.90;99.90;;;;;;5033611;28;20127;-89
2022/11/01 04:36:06;;;;;;;12.13;6.10;;;15.40;99.90;;;;;;5044383;28;20037;-89
2022/11/01 04:38:32;;;;;;;10.98;5.72;;;15.40;99.90;;;;;;5028200;28;20041;-89
2022/11/01 04:40:57;;;;;;;15.25;6.25;;;15.40;99.90;;;;;;5017790;28;20060;-89
2022/11/01 04:43:23;;;;;;;12.82;5.80;;;15.50;99.90;;;;;;5034744;28;20409;-89
2022/11/01 04:45:55;;;;;;;15.30;6.18;;;15.40;99.90;;;;;;5036067;28;20102;-89
2022/11/01 04:48:22;;;;;;;12.75;5.93;;;15.50;99.90;;;;;;5029915;28;20045;-88
2022/11/01 04:50:48;;;;;;;14.45;6.00;;;15.50;99.90;;;;;;5016935;28;20149;-88
2022/11/01 04:53:14;;;;;;;16.77;6.32;;;16.20;99.90;;;;;;5023279;28;20037;-88
2022/11/01 04:55:39;;;;;;;11.77;5.70;;;15.50;99.90;;;;;;5051451;28;20101;-89
2022/11/01 04:58:06;;;;;;;12.68;5.88;;;15.50;99.90;;;;;;5035300;28;20060;-89
2022/11/01 05:00:32;;;;;;;10.00;5.40;;;15.60;99.90;;;;;;5048812;28;20045;-88
2022/11/01 05:03:02;;;;;;;9.77;5.53;;;15.60;99.90;;;;;;5035783;28;20378;-88
2022/11/01 05:05:29;;;;;;;13.68;6.15;;;15.60;99.90;;;;;;5040956;28;20056;-89
2022/11/01 05:08:08;;;;;;;14.05;5.43;;;15.60;99.90;;;;;;5053534;28;20372;-89
2022/11/01 05:10:35;;;;;;;10.70;5.32;;;15.70;99.90;;;;;;5034808;28;20084;-89
2022/11/01 05:13:02;;;;;;;8.68;4.82;;;15.70;99.90;;;;;;5034138;28;20045;-89
2022/11/01 05:15:28;;;;;;;12.45;5.18;;;15.70;99.90;;;;;;5050243;28;20045;-88
2022/11/01 05:17:54;;;;;;;10.10;5.13;;;15.80;99.90;;;;;;5036703;28;20106;-89
2022/11/01 05:20:19;;;;;;;13.30;5.00;;;15.80;99.90;;;;;;5036999;28;20037;-89
2022/11/01 05:22:45;;;;;;;13.50;4.53;;;15.90;99.90;;;;;;5051638;28;20045;-88
2022/11/01 05:25:11;;;;;;;10.32;4.97;;;15.90;99.90;;;;;;5033387;28;20045;-89
2022/11/01 05:27:38;;;;;;;11.63;5.22;;;16.00;99.90;;;;;;5017230;28;20068;-89
2022/11/01 05:30:05;;;;;;;12.88;5.00;;;16.00;99.90;;;;;;5047549;28;20103;-88
2022/11/01 05:32:31;;;;;;;13.88;4.70;;;16.10;99.90;;;;;;5035285;28;20037;-89
2022/11/01 05:34:56;;;;;;;12.45;4.90;;;16.00;99.90;;;;;;5035233;28;20106;-89
2022/11/01 05:37:22;;;;;;;9.98;4.03;;;16.10;99.90;;;;;;5052293;28;20084;-89
2022/11/01 05:39:48;;;;;;;8.40;4.30;;;16.10;99.90;;;;;;5016981;28;20045;-89
2022/11/01 05:42:13;;;;;;;8.55;4.18;;;16.20;99.90;;;;;;5035963;28;20049;-89
2022/11/01 05:44:39;;;;;;;9.15;4.40;;;16.50;99.90;;;;;;5019509;28;20034;-90
2022/11/01 05:47:05;;;;;;;10.57;4.32;;;16.20;99.90;;;;;;5016914;28;20115;-89
2022/11/01 05:49:31;;;;;;;7.97;3.33;;;16.20;99.90;;;;;;5030425;28;20041;-88
2022/11/01 05:51:57;;;;;;;7.05;2.72;;;16.30;99.90;;;;;;5035842;28;20171;-89
2022/11/01 05:54:23;;;;;;;7.20;3.25;;;16.40;99.90;;;;;;5023791;28;20324;-89
2022/11/01 05:56:48;;;;;;;4.47;2.42;;;16.40;99.90;;;;;;5035656;28;20049;-88
2022/11/01 05:59:14;;;;;;;8.75;2.63;;;16.30;99.90;;;;;;5030021;28;20060;-89
2022/11/01 06:01:43;;;;;;;5.78;2.47;;;16.30;99.90;;;;;;5035432;28;20441;-89
2022/11/01 06:04:09;;;;;;;6.97;2.03;;;16.20;99.90;;;;;;5040482;28;20030;-88
2022/11/01 06:06:35;;;;;;;6.35;2.03;;;16.20;99.90;;;;;;5027659;28;20063;-90
2022/11/01 06:09:01;;;;;;;5.05;2.00;;;16.20;99.90;;;;;;5046596;28;20037;-89
2022/11/01 06:11:28;;;;;;;6.95;1.90;;;16.10;99.90;;;;;;5036901;28;20037;-89
2022/11/01 06:13:58;;;;;;;4.55;1.63;;;16.10;99.90;;;;;;5056490;28;20083;-89
2022/11/01 06:16:25;;;;;;;8.25;1.85;;;16.00;99.90;;;;;;5038622;28;20426;-89
2022/11/01 06:18:51;;;;;;;5.93;1.70;;;15.90;99.90;;;;;;5035599;28;20037;-88
2022/11/01 06:21:17;;;;;;;3.28;1.75;;;15.80;99.90;;;;;;5037633;28;20059;-89
2022/11/01 06:23:49;;;;;;;3.33;1.48;;;15.30;99.90;;;;;;5028937;28;20135;-89
2022/11/01 06:26:17;;;;;;;3.15;1.60;;;15.80;99.90;;;;;;5043974;28;20116;-89
2022/11/01 06:28:42;;;;;;;6.22;1.55;;;16.30;99.90;;;;;;5036562;28;20102;-89
2022/11/01 06:31:08;;;;;;;6.00;1.40;;;15.70;99.90;;;;;;5039327;28;20049;-88
2022/11/01 06:33:34;;;;;;;5.38;1.45;;;15.50;99.90;;;;;;5039158;28;20183;-88
2022/11/01 06:36:01;;;;;;;6.68;1.60;;;15.50;99.90;;;;;;5055308;28;20118;-89
2022/11/01 06:38:26;;;;;;;7.40;1.50;;;15.50;99.90;;;;;;5059788;28;20409;-89
2022/11/01 06:40:52;;;;;;;4.25;1.13;;;15.40;99.90;;;;;;5039811;28;20041;-89
2022/11/01 06:43:19;;;;;;;4.57;1.45;;;15.30;99.90;;;;;;5040214;28;20037;-88
2022/11/01 06:45:45;;;;;;;9.00;1.80;;;15.20;99.90;;;;;;5043724;28;20107;-90
2022/11/01 06:48:10;;;;;;;4.57;1.50;;;15.20;99.90;;;;;;5038509;28;20044;-90
2022/11/01 06:50:36;;;;;;;7.75;1.40;;;15.20;99.90;;;;;;5053447;28;20363;-88
2022/11/01 06:53:02;;;;;;;7.10;1.70;;;15.30;99.90;;;;;;5019466;28;20556;-87
2022/11/01 06:55:28;;;;;;;4.95;1.40;;;15.20;99.90;;;;;;5016556;28;20395;-88
2022/11/01 06:57:59;;;;;;;8.85;2.33;;;15.10;99.90;;;;;;5017269;28;20041;-88
2022/11/01 07:00:27;;;;;;;4.82;1.45;;;15.10;99.90;;;;;;5001823;28;20052;-88
2022/11/01 07:03:01;;;;;;;5.35;1.50;;;15.10;99.90;;;;;;5002477;28;20046;-88
2022/11/01 07:05:28;;;;;;;6.00;1.85;;;15.10;99.90;;;;;;5022424;28;20056;-89
2022/11/01 07:07:54;;;;;;;9.10;2.00;;;15.00;99.90;;;;;;5021360;28;20045;-88
2022/11/01 07:10:20;;;;;;;7.03;1.73;;;15.00;99.90;;;;;;5009652;28;20505;-88
2022/11/01 07:12:46;;;;;;;7.30;1.88;;;14.10;99.90;;;;;;5020490;28;20048;-88
2022/11/01 07:15:11;;;;;;;9.52;1.80;;;15.00;99.90;;;;;;5022295;28;20045;-89
2022/11/01 07:17:37;;;;;;;10.30;2.25;;;14.90;99.90;;;;;;5038197;28;20048;-88
2022/11/01 07:20:03;;;;;;;10.32;1.70;;;14.90;99.90;;;;;;5038590;28;20192;-89
2022/11/01 07:22:30;;;;;;;7.55;1.55;;;14.90;99.90;;;;;;5022595;28;20459;-89
2022/11/01 07:24:56;;;;;;;4.85;1.45;;;14.90;99.90;;;;;;5020558;28;20115;-88
2022/11/01 07:27:22;;;;;;;11.13;2.10;;;14.90;99.90;;;;;;5019777;28;20585;-88
2022/11/01 07:29:47;;;;;;;8.38;1.70;;;14.90;99.90;;;;;;5018433;28;20047;-88
2022/11/01 07:32:13;;;;;;;11.10;2.20;;;14.90;99.90;;;;;;5017772;28;20422;-88
2022/11/01 07:34:39;;;;;;;9.98;2.13;;;14.90;99.90;;;;;;5007568;28;20497;-89
2022/11/01 07:37:04;;;;;;;13.02;2.40;;;14.90;99.90;;;;;;5021314;28;20049;-87
2022/11/01 07:39:30;;;;;;;6.07;1.65;;;15.00;99.90;;;;;;5036742;28;20041;-89
2022/11/01 07:41:57;;;;;;;6.82;1.98;;;15.00;99.90;;;;;;5039960;28;20083;-88
2022/11/01 07:44:23;;;;;;;8.60;2.35;;;15.10;99.90;;;;;;5041364;28;20041;-87
2022/11/01 07:46:49;;;;;;;10.10;2.47;;;15.20;99.90;;;;;;5022577;28;20045;-88
2022/11/01 07:49:15;;;;;;;7.70;2.10;;;15.30;99.90;;;;;;5011540;28;20049;-87
2022/11/01 07:51:40;;;;;;;15.20;2.17;;;15.30;99.90;;;;;;5005015;28;20044;-87
2022/11/01 07:54:06;;;;;;;10.45;2.42;;;15.30;99.90;;;;;;5002023;28;20099;-87
2022/11/01 07:56:32;;;;;;;9.50;1.85;;;15.30;99.90;;;;;;5000427;28;20103;-87
2022/11/01 07:58:58;;;;;;;10.40;2.33;;;15.40;99.90;;;;;;5011440;28;20049;-87
2022/11/01 08:01:24;;;;;;;7.18;1.75;;;15.30;99.90;;;;;;5037314;28;20044;-87
2022/11/01 08:03:49;;;;;;;10.35;2.20;;;16.10;99.90;;;;;;5020728;28;20123;-87
2022/11/01 08:06:15;;;;;;;9.55;2.17;;;16.30;99.90;;;;;;5033654;28;20048;-88
2022/11/01 08:08:41;;;;;;;11.50;2.20;;;16.20;99.90;;;;;;5039286;28;20393;-87
2022/11/01 08:11:07;;;;;;;9.88;2.03;;;16.00;99.90;;;;;;5039246;28;20079;-87
2022/11/01 08:13:33;;;;;;;11.60;2.40;;;16.00;99.90;;;;;;5055402;28;20428;-87
2022/11/01 08:16:01;;;;;;;11.93;2.30;;;15.90;99.90;;;;;;5055666;28;20044;-87
2022/11/01 08:18:27;;;;;;;5.57;1.98;;;15.80;99.90;;;;;;5037274;28;20051;-85
2022/11/01 08:20:53;;;;;;;8.43;2.65;;;;;;;;;;5037337;28;20040;-86
2022/11/01 08:23:19;;;;;;;10.27;2.08;;;;;;;;;;5053475;28;20047;-86
2022/11/01 08:25:45;;;;;;;10.18;2.05;;;16.00;99.90;;;;;;5046395;28;20041;-89
2022/11/01 08:28:16;;;;;;;14.00;2.30;;;16.20;99.90;;;;;;5020185;28;20183;-86
2022/11/01 08:30:44;;;;;;;14.27;2.65;;;16.00;99.90;;;;;;5031677;28;20052;-86
2022/11/01 08:33:10;;;;;;;10.77;2.45;;;;;;;;;;5055221;28;20086;-86
2022/11/01 08:35:36;;;;;;;9.05;2.28;;;15.90;99.90;;;;;;5055025;28;20045;-86
2022/11/01 08:38:02;;;;;;;15.30;2.95;;;16.20;99.90;;;;;;5055323;28;20127;-86
2022/11/01 08:40:30;;;;;;;14.50;2.70;;;16.10;99.90;;;;;;5055696;28;20044;-86
2022/11/01 08:42:56;;;;;;;10.98;2.38;;;15.90;99.90;;;;;;5056507;28;20052;-87
2022/11/01 08:45:22;;;;;;;10.13;2.28;;;15.80;99.90;;;;;;5039695;28;20044;-87
2022/11/01 08:47:48;;;;;;;13.05;2.55;;;15.70;99.90;;;;;;5056076;28;20437;-86
2022/11/01 08:50:16;;;;;;;14.05;2.90;;;15.60;99.90;;;;;;5039126;28;20045;-85
2022/11/01 08:52:43;;;;;;;14.13;2.58;;;15.50;99.90;;;;;;5056423;28;20036;-89
2022/11/01 08:55:12;;;;;;;12.15;2.78;;;15.40;99.90;;;;;;5038805;28;20052;-89
2022/11/01 08:57:38;;;;;;;12.15;2.50;;;15.40;99.90;;;;;;5055670;28;20040;-89
2022/11/01 09:00:09;;;;;;;12.95;2.38;;;15.30;99.90;;;;;;5038369;28;20052;-88
2022/11/01 09:02:35;;;;;;;15.65;3.42;;;15.40;99.90;;;;;;5050696;28;20045;-88
2022/11/01 09:05:05;;;;;;;16.85;3.28;;;15.40;99.90;;;;;;5027722;28;20045;-88
2022/11/01 09:07:33;;;;;;;15.95;3.08;;;15.40;99.90;;;;;;5029833;28;20393;-88
2022/11/01 09:09:59;;;;;;;17.80;3.08;;;15.40;99.90;;;;;;5030473;28;20099;-85
2022/11/01 09:12:26;;;;;;;13.80;2.92;;;;;;;;;;5018539;28;20044;-85
2022/11/01 09:14:52;;;;;;;18.42;3.60;;;;;;;;;;5042844;28;20370;-86
2022/11/01 09:17:18;;;;;;;17.20;3.13;;;;;;;;;;5051727;28;20490;-86
2022/11/01 09:19:44;;;;;;;16.55;3.10;;;;;;;;;;5017862;28;20052;-87
2022/11/01 09:22:10;;;;;;;19.75;3.35;;;;;;;;;;5018875;28;20551;-87
2022/11/01 09:24:36;;;;;;;9.73;2.72;;;;;;;;;;5035347;28;20192;-86
2022/11/01 09:27:02;;;;;;;16.35;3.40;;;;;;;;;;5031338;28;20090;-85
2022/11/01 09:29:28;;;;;;;14.52;2.83;;;;;;;;;;5055086;28;20048;-88
2022/11/01 09:31:54;;;;;;;18.35;3.22;;;;;;;;;;5053916;28;20041;-87
2022/11/01 09:34:21;;;;;;;11.95;2.78;;;;;;;;;;5039145;28;20094;-87
2022/11/01 09:36:47;;;;;;;14.88;2.95;;;;;;;;;;5028256;28;20055;-90
2022/11/01 09:39:16;;;;;;;16.25;3.30;;;;;;;;;;5045428;28;20041;-90
2022/11/01 09:41:46;;;;;;;15.63;3.20;;;;;;;;;;5040968;28;20059;-89
2022/11/01 09:44:21;;;;;;;14.55;3.22;;;;;;;;;;5059553;28;20037;-90
2022/11/01 09:46:49;;;;;;;21.37;3.27;;;;;;;;;;5059161;28;20127;-88
2022/11/01 09:49:20;;;;;;;14.93;3.50;;;;;;;;;;5047149;28;20474;-88
2022/11/01 09:51:46;;;;;;;18.77;4.03;;;;;;;;;;5059870;28;20048;-88
2022/11/01 09:54:13;;;;;;;14.73;3.65;;;;;;;;;;5054240;28;20405;-88
2022/11/01 09:56:58;;;;;;;11.02;2.88;;;;;;;;;;5040564;28;20481;-87
2022/11/01 09:59:39;;;;;;;16.75;3.00;;;;;;;;;;5042568;28;20061;-88
2022/11/01 10:02:25;;;;;;;18.00;3.38;;;;;;;;;;5036394;28;20048;-90
2022/11/01 10:05:06;;;;;;;17.23;3.70;;;;;;;;;;5041294;28;20063;-87
2022/11/01 10:07:32;;;;;;;14.73;3.75;;;;;;;;;;5042485;28;20040;-87
2022/11/01 10:10:01;;;;;;;13.98;3.13;;;;;;;;;;5059140;28;20036;-89
2022/11/01 10:12:34;;;;;;;17.30;3.70;;;;;;;;;;5041793;28;20062;-88
2022/11/01 10:15:14;;;;;;;15.10;3.15;;;;;;;;;;5059364;28;20036;-88
2022/11/01 10:18:00;;;;;;;16.38;3.35;;;;;;;;;;5058874;28;20048;-87
2022/11/01 10:20:31;;;;;;;12.32;2.92;;;;;;;;;;5041824;28;20565;-88
2022/11/01 10:22:58;;;;;;;15.20;3.58;;;;;;;;;;5059723;28;20094;-88
2022/11/01 10:25:24;;;;;;;17.50;3.35;;;;;;;;;;5058397;28;20045;-88
2022/11/01 10:28:10;;;;;;;9.07;2.53;;;;;;;;;;5041868;28;20041;-88
2022/11/01 10:30:41;;;;;;;13.88;3.22;;;;;;;;;;5030074;28;20159;-85
2022/11/01 10:33:26;;;;;;;15.32;3.33;;;;;;;;;;5020171;28;20037;-87
2022/11/01 10:35:54;;;;;;;18.88;3.60;;;;;;;;;;5037406;28;20483;-87
2022/11/01 10:38:32;;;;;;;11.32;2.75;;;;;;;;;;5020921;28;20498;-86
2022/11/01 10:41:17;;;;;;;17.45;3.97;;;;;;;;;;5043417;28;20115;-90
2022/11/01 10:43:49;;;;;;;18.27;3.55;;;;;;;;;;5055293;28;20501;-90
2022/11/01 10:46:24;;;;;;;11.50;2.90;;;;;;;;;;5039033;28;20076;-90
2022/11/01 10:48:52;;;;;;;15.50;3.08;;;;;;;;;;5037911;28;20041;-89
2022/11/01 10:51:20;;;;;;;14.27;3.00;;;;;;;;;;5038786;28;20045;-89
2022/11/01 10:53:48;;;;;;;12.45;2.70;;;;;;;;;;5038498;28;20513;-90
2022/11/01 10:56:21;;;;;;;15.60;3.03;;;;;;;;;;5038634;28;20041;-89
2022/11/01 10:58:53;;;;;;;20.13;3.55;;;;;;;;;;5055580;28;20238;-90
2022/11/01 11:01:21;;;;;;;15.10;2.72;;;;;;;;;;5055262;28;20053;-89
2022/11/01 11:03:48;;;;;;;12.38;2.92;;;;;;;;;;5038308;28;20413;-89
2022/11/01 11:06:14;;;;;;;13.85;2.85;;;16.00;99.90;;;;;;5037980;28;20049;-90
2022/11/01 11:08:43;;;;;;;19.63;3.10;;;17.80;99.90;;;;;;5037634;28;20101;-89
2022/11/01 11:11:13;;;;;;;12.82;2.83;;;16.20;99.90;;;;;;5037484;28;20037;-89
2022/11/01 11:13:43;;;;;;;18.42;3.35;;;17.00;99.90;;;;;;5028847;28;20116;-88
2022/11/01 11:16:29;;;;;;;19.05;3.50;;;17.00;99.90;;;;;;5029193;28;20052;-90
2022/11/01 11:19:18;;;;;;;13.38;2.90;;;16.80;99.90;;;;;;5041274;28;20068;-87
2022/11/01 11:21:46;;;;;;;16.85;3.65;;;16.80;99.90;;;;;;5041962;28;20385;-89
2022/11/01 11:24:21;;;;;;;17.85;3.28;;;16.80;99.90;;;;;;5021545;28;20033;-89
2022/11/01 11:26:50;;;;;;;16.25;3.20;;;16.70;99.90;;;;;;5026380;28;20194;-88
2022/11/01 11:29:40;;;;;;;16.40;3.83;;;16.50;99.90;;;;;;5039959;28;20029;-89
2022/11/01 11:32:15;;;;;;;13.40;2.80;;;16.40;99.90;;;;;;5029450;28;20056;-88
2022/11/01 11:34:41;;;;;;;14.50;2.80;;;16.50;99.90;;;;;;5019776;28;20037;-88
2022/11/01 11:37:16;;;;;;;14.88;2.90;;;16.50;99.90;;;;;;5024947;28;20044;-88
2022/11/01 11:40:01;;;;;;;14.52;3.50;;;16.50;99.90;;;;;;5038667;28;20040;-88
2022/11/01 11:42:29;;;;;;;18.00;3.78;;;16.50;99.90;;;;;;5039227;28;20052;-88
2022/11/01 11:45:14;;;;;;;14.85;2.83;;;16.60;99.90;;;;;;5039238;28;20175;-88
2022/11/01 11:47:40;;;;;;;13.85;2.85;;;;;;;;;;5057965;28;20071;-88
2022/11/01 11:50:23;;;;;;;13.90;3.25;;;;;;;;;;5057630;28;20462;-89
2022/11/01 11:52:58;;;;;;;15.02;2.80;;;;;;;;;;5057517;28;20044;-88
2022/11/01 11:55:45;;;;;;;14.93;3.03;;;;;;;;;;5056983;28;20045;-88
2022/11/01 11:58:23;;;;;;;14.15;2.88;;;;;;;;;;5056736;28;20056;-88
2022/11/01 12:00:51;;;;;;;14.43;2.95;;;;;;;;;;5056933;28;20560;-88
2022/11/01 12:03:17;;;;;;;14.07;2.58;;;;;;;;;;5056535;28;20049;-88
2022/11/01 12:05:58;;;;;;;14.80;3.10;;;;;;;;;;5055705;28;20048;-88
2022/11/01 12:08:37;;;;;;;13.55;3.03;;;;;;;;;;5056867;28;20140;-88
2022/11/01 12:11:04;;;;;;;11.00;2.70;;;;;;;;;;5057220;28;20063;-88
2022/11/01 12:13:42;;;;;;;13.15;2.65;;;;;;;;;;5056810;28;20048;-88
2022/11/01 12:16:09;;;;;;;11.60;2.60;;;;;;;;;;5052933;28;20143;-88
2022/11/01 12:18:44;;;;;;;10.00;2.83;;;;;;;;;;5020041;28;20045;-86
2022/11/01 12:21:16;;;;;;;16.40;2.55;;;;;;;;;;5020663;28;20055;-88
2022/11/01 12:23:42;;;;;;;9.60;2.53;;;;;;;;;;5020199;28;20052;-88
2022/11/01 12:26:11;;;;;;;12.05;3.03;;;;;;;;;;5020025;28;20067;-88
2022/11/01 12:28:40;;;;;;;11.80;2.88;;;;;;;;;;5037256;28;20045;-88
2022/11/01 12:31:10;;;;;;;15.38;2.70;;;;;;;;;;5019632;28;20059;-88
2022/11/01 12:33:39;;;;;;;10.25;2.50;;;;;;;;;;5019950;28;20136;-88
2022/11/01 12:36:07;;;;;;;10.82;3.00;;;;;;;;;;5020072;28;20048;-88
2022/11/01 12:38:37;;;;;;;15.27;3.42;;;;;;;;;;5036730;28;20041;-88
2022/11/01 12:41:14;;;;;;;13.73;2.95;;;;;;;;;;5037018;28;20494;-88
2022/11/01 12:44:02;;;;;;;13.80;3.00;;;;;;;;;;5037042;28;20049;-88
2022/11/01 12:46:38;;;;;;;12.85;3.22;;;;;;;;;;4990042;28;20059;-88
2022/11/01 12:49:10;;;;;;;11.95;2.63;;;;;;;;;;5035014;28;20045;-88
2022/11/01 12:51:42;;;;;;;12.48;2.83;;;;;;;;;;5034370;28;20048;-88
2022/11/01 12:54:13;;;;;;;13.10;3.03;;;;;;;;;;5049373;28;20151;-88
2022/11/01 12:56:40;;;;;;;11.20;2.72;;;;;;;;;;5055777;28;20048;-87
2022/11/01 12:59:08;;;;;;;12.60;2.42;;;;;;;;;;5055667;28;20059;-87
2022/11/01 13:01:43;;;;;;;11.20;2.88;;;;;;;;;;5055487;28;20052;-88
2022/11/01 13:04:29;;;;;;;12.93;2.90;;;;;;;;;;5055271;28;20044;-88
2022/11/01 13:07:03;;;;;;;13.48;2.60;;;;;;;;;;5056484;28;20040;-88
2022/11/01 13:09:35;;;;;;;15.85;2.50;;;;;;;;;;5064943;28;20048;-87
2022/11/01 13:12:01;;;;;;;13.43;2.83;;;;;;;;;;5056019;28;20087;-88
2022/11/01 13:14:42;;;;;;;12.65;2.72;;;;;;;;;;5052101;28;20573;-88
2022/11/01 13:17:28;;;;;;;14.02;2.63;;;;;;;;;;5019958;28;20451;-87
2022/11/01 13:19:57;;;;;;;10.23;2.50;;;;;;;;;;5001308;28;20060;-87
2022/11/01 13:22:30;;;;;;;12.50;2.92;;;;;;;;;;5023419;28;20067;-88
2022/11/01 13:25:01;;;;;;;11.32;2.80;;;;;;;;;;5038811;28;20056;-88
2022/11/01 13:27:30;;;;;;;13.57;2.85;;;;;;;;;;5020770;28;20071;-87